Terminal Aerodrome Forecast
Issued by NWS

Home | Current Version | Previous Version | Text Only | Print | Product List | Glossary On
Versions: 1 2 3 4 5 6 7 8 9 10 11 12 13 14 15 16 17 18
785
FTUS44 KBMX 300520
TAFTOI
TAF
KTOI 300520Z 3006/0106 14004KT P6SM SCT040 SCT250
     FM301000 11006KT P6SM BKN025 WS018/17040KT
     FM301200 12011G17KT P6SM OVC015
     FM301500 15012G23KT P6SM BKN025
     FM301800 18018G28KT P6SM BKN035=

USA.gov is the U.S. government's official web portal to all federal, state and local government web resources and services.